sensor_id;sensor_type;location;lat;lon;timestamp;temperature;humidity
13569;DHT22;6856;51.460;7.158;2022-07-24T00:02:30;22.00;51.80
13569;DHT22;6856;51.460;7.158;2022-07-24T00:05:06;22.00;51.90
13569;DHT22;6856;51.460;7.158;2022-07-24T00:07:41;22.00;52.10
13569;DHT22;6856;51.460;7.158;2022-07-24T00:10:16;21.90;52.00
13569;DHT22;6856;51.460;7.158;2022-07-24T00:12:52;21.90;52.10
13569;DHT22;6856;51.460;7.158;2022-07-24T00:15:26;21.80;52.20
13569;DHT22;6856;51.460;7.158;2022-07-24T00:18:01;21.80;52.20
13569;DHT22;6856;51.460;7.158;2022-07-24T00:20:36;21.80;52.30
13569;DHT22;6856;51.460;7.158;2022-07-24T00:23:10;21.80;52.50
13569;DHT22;6856;51.460;7.158;2022-07-24T00:25:45;21.70;52.50
13569;DHT22;6856;51.460;7.158;2022-07-24T00:28:22;21.70;52.60
13569;DHT22;6856;51.460;7.158;2022-07-24T00:30:57;21.70;52.60
13569;DHT22;6856;51.460;7.158;2022-07-24T00:33:31;21.60;52.60
13569;DHT22;6856;51.460;7.158;2022-07-24T00:36:07;21.60;52.60
13569;DHT22;6856;51.460;7.158;2022-07-24T00:38:43;21.50;52.60
13569;DHT22;6856;51.460;7.158;2022-07-24T00:41:17;21.50;52.60
13569;DHT22;6856;51.460;7.158;2022-07-24T00:44:04;21.50;52.70
13569;DHT22;6856;51.460;7.158;2022-07-24T00:46:43;21.50;53.20
13569;DHT22;6856;51.460;7.158;2022-07-24T00:49:20;21.50;52.90
13569;DHT22;6856;51.460;7.158;2022-07-24T00:51:58;21.40;52.90
13569;DHT22;6856;51.460;7.158;2022-07-24T00:54:32;21.40;52.90
13569;DHT22;6856;51.460;7.158;2022-07-24T00:57:06;21.40;52.90
13569;DHT22;6856;51.460;7.158;2022-07-24T00:59:44;21.40;53.00
13569;DHT22;6856;51.460;7.158;2022-07-24T01:02:19;21.40;53.70
13569;DHT22;6856;51.460;7.158;2022-07-24T01:04:53;21.40;53.10
13569;DHT22;6856;51.460;7.158;2022-07-24T01:07:28;21.40;53.20
13569;DHT22;6856;51.460;7.158;2022-07-24T01:10:04;21.40;53.20
13569;DHT22;6856;51.460;7.158;2022-07-24T01:12:40;21.40;53.20
13569;DHT22;6856;51.460;7.158;2022-07-24T01:15:16;21.40;53.20
13569;DHT22;6856;51.460;7.158;2022-07-24T01:17:51;21.40;53.20
13569;DHT22;6856;51.460;7.158;2022-07-24T01:20:25;21.40;53.10
13569;DHT22;6856;51.460;7.158;2022-07-24T01:23:02;21.40;53.00
13569;DHT22;6856;51.460;7.158;2022-07-24T01:25:36;21.40;53.00
13569;DHT22;6856;51.460;7.158;2022-07-24T01:28:11;21.40;53.10
13569;DHT22;6856;51.460;7.158;2022-07-24T01:30:45;21.40;53.40
13569;DHT22;6856;51.460;7.158;2022-07-24T01:33:20;21.40;53.20
13569;DHT22;6856;51.460;7.158;2022-07-24T01:35:55;21.30;53.10
13569;DHT22;6856;51.460;7.158;2022-07-24T01:38:31;21.30;53.10
13569;DHT22;6856;51.460;7.158;2022-07-24T01:41:05;21.30;53.20
13569;DHT22;6856;51.460;7.158;2022-07-24T01:43:40;21.30;53.40
13569;DHT22;6856;51.460;7.158;2022-07-24T01:46:15;21.30;53.20
13569;DHT22;6856;51.460;7.158;2022-07-24T01:48:50;21.30;53.10
13569;DHT22;6856;51.460;7.158;2022-07-24T01:51:24;21.30;53.20
13569;DHT22;6856;51.460;7.158;2022-07-24T01:54:00;21.20;53.30
13569;DHT22;6856;51.460;7.158;2022-07-24T01:56:35;21.30;53.30
13569;DHT22;6856;51.460;7.158;2022-07-24T01:59:09;21.20;53.30
13569;DHT22;6856;51.460;7.158;2022-07-24T02:01:45;21.20;53.30
13569;DHT22;6856;51.460;7.158;2022-07-24T02:04:20;21.20;53.60
13569;DHT22;6856;51.460;7.158;2022-07-24T02:06:54;21.20;53.30
13569;DHT22;6856;51.460;7.158;2022-07-24T02:09:30;21.20;53.40
13569;DHT22;6856;51.460;7.158;2022-07-24T02:12:04;21.30;53.50
13569;DHT22;6856;51.460;7.158;2022-07-24T02:14:39;21.20;53.40
13569;DHT22;6856;51.460;7.158;2022-07-24T02:17:13;21.20;53.40
13569;DHT22;6856;51.460;7.158;2022-07-24T02:19:48;21.10;53.40
13569;DHT22;6856;51.460;7.158;2022-07-24T02:22:22;21.10;53.40
13569;DHT22;6856;51.460;7.158;2022-07-24T02:24:58;21.10;53.50
13569;DHT22;6856;51.460;7.158;2022-07-24T02:27:33;21.10;53.50
13569;DHT22;6856;51.460;7.158;2022-07-24T02:30:10;21.10;53.60
13569;DHT22;6856;51.460;7.158;2022-07-24T02:32:45;21.10;53.70
13569;DHT22;6856;51.460;7.158;2022-07-24T02:35:20;21.10;53.60
13569;DHT22;6856;51.460;7.158;2022-07-24T02:37:55;21.00;53.50
13569;DHT22;6856;51.460;7.158;2022-07-24T02:40:31;21.00;53.50
13569;DHT22;6856;51.460;7.158;2022-07-24T02:43:05;21.00;53.60
13569;DHT22;6856;51.460;7.158;2022-07-24T02:45:40;21.00;53.60
13569;DHT22;6856;51.460;7.158;2022-07-24T02:48:21;21.00;53.70
13569;DHT22;6856;51.460;7.158;2022-07-24T02:50:56;21.00;53.70
13569;DHT22;6856;51.460;7.158;2022-07-24T02:53:31;21.00;53.70
13569;DHT22;6856;51.460;7.158;2022-07-24T02:56:07;21.00;53.80
13569;DHT22;6856;51.460;7.158;2022-07-24T02:58:41;21.00;53.80
13569;DHT22;6856;51.460;7.158;2022-07-24T03:01:16;21.00;53.80
13569;DHT22;6856;51.460;7.158;2022-07-24T03:03:51;21.00;53.90
13569;DHT22;6856;51.460;7.158;2022-07-24T03:06:25;21.00;54.00
13569;DHT22;6856;51.460;7.158;2022-07-24T03:09:00;21.00;54.00
13569;DHT22;6856;51.460;7.158;2022-07-24T03:11:36;21.00;53.90
13569;DHT22;6856;51.460;7.158;2022-07-24T03:14:11;21.00;54.00
13569;DHT22;6856;51.460;7.158;2022-07-24T03:16:45;21.00;54.00
13569;DHT22;6856;51.460;7.158;2022-07-24T03:19:20;21.00;53.90
13569;DHT22;6856;51.460;7.158;2022-07-24T03:21:54;21.00;54.00
13569;DHT22;6856;51.460;7.158;2022-07-24T03:24:29;20.90;53.90
13569;DHT22;6856;51.460;7.158;2022-07-24T03:27:05;20.90;53.90
13569;DHT22;6856;51.460;7.158;2022-07-24T03:29:40;20.90;53.90
13569;DHT22;6856;51.460;7.158;2022-07-24T03:32:14;20.90;53.90
13569;DHT22;6856;51.460;7.158;2022-07-24T03:34:49;20.90;53.90
13569;DHT22;6856;51.460;7.158;2022-07-24T03:37:23;20.90;53.90
13569;DHT22;6856;51.460;7.158;2022-07-24T03:39:58;20.90;54.10
13569;DHT22;6856;51.460;7.158;2022-07-24T03:42:33;20.90;54.00
13569;DHT22;6856;51.460;7.158;2022-07-24T03:45:08;20.90;54.10
13569;DHT22;6856;51.460;7.158;2022-07-24T03:47:43;20.90;54.10
13569;DHT22;6856;51.460;7.158;2022-07-24T03:50:18;20.90;54.10
13569;DHT22;6856;51.460;7.158;2022-07-24T03:52:53;20.90;53.90
13569;DHT22;6856;51.460;7.158;2022-07-24T03:55:27;20.90;54.00
13569;DHT22;6856;51.460;7.158;2022-07-24T03:58:03;21.00;54.10
13569;DHT22;6856;51.460;7.158;2022-07-24T04:00:39;21.00;54.60
13569;DHT22;6856;51.460;7.158;2022-07-24T04:03:13;21.00;54.10
13569;DHT22;6856;51.460;7.158;2022-07-24T04:05:50;21.00;54.30
13569;DHT22;6856;51.460;7.158;2022-07-24T04:08:24;21.00;54.30
13569;DHT22;6856;51.460;7.158;2022-07-24T04:10:58;21.00;54.30
13569;DHT22;6856;51.460;7.158;2022-07-24T04:13:35;21.00;54.30
13569;DHT22;6856;51.460;7.158;2022-07-24T04:16:14;21.00;54.30
13569;DHT22;6856;51.460;7.158;2022-07-24T04:18:49;21.00;54.30
13569;DHT22;6856;51.460;7.158;2022-07-24T04:21:23;21.00;54.20
13569;DHT22;6856;51.460;7.158;2022-07-24T04:23:57;21.00;54.30
13569;DHT22;6856;51.460;7.158;2022-07-24T04:26:32;21.00;54.20
13569;DHT22;6856;51.460;7.158;2022-07-24T04:29:07;21.00;54.40
13569;DHT22;6856;51.460;7.158;2022-07-24T04:31:43;21.00;54.50
13569;DHT22;6856;51.460;7.158;2022-07-24T04:34:18;21.00;54.40
13569;DHT22;6856;51.460;7.158;2022-07-24T04:36:52;21.10;54.50
13569;DHT22;6856;51.460;7.158;2022-07-24T04:39:26;21.00;54.50
13569;DHT22;6856;51.460;7.158;2022-07-24T04:42:01;21.10;54.40
13569;DHT22;6856;51.460;7.158;2022-07-24T04:44:39;21.10;54.50
13569;DHT22;6856;51.460;7.158;2022-07-24T04:47:16;21.10;54.30
13569;DHT22;6856;51.460;7.158;2022-07-24T04:49:50;21.20;54.40
13569;DHT22;6856;51.460;7.158;2022-07-24T04:52:25;21.20;54.50
13569;DHT22;6856;51.460;7.158;2022-07-24T04:55:00;21.20;54.40
13569;DHT22;6856;51.460;7.158;2022-07-24T04:57:35;21.20;54.60
13569;DHT22;6856;51.460;7.158;2022-07-24T05:00:13;21.20;54.60
13569;DHT22;6856;51.460;7.158;2022-07-24T05:02:48;21.30;54.70
13569;DHT22;6856;51.460;7.158;2022-07-24T05:05:22;21.30;54.60
13569;DHT22;6856;51.460;7.158;2022-07-24T05:07:56;21.30;54.70
13569;DHT22;6856;51.460;7.158;2022-07-24T05:10:30;21.40;54.70
13569;DHT22;6856;51.460;7.158;2022-07-24T05:13:05;21.40;54.60
13569;DHT22;6856;51.460;7.158;2022-07-24T05:15:40;21.40;54.60
13569;DHT22;6856;51.460;7.158;2022-07-24T05:18:15;21.50;54.70
13569;DHT22;6856;51.460;7.158;2022-07-24T05:20:49;21.50;54.50
13569;DHT22;6856;51.460;7.158;2022-07-24T05:23:23;21.50;54.50
13569;DHT22;6856;51.460;7.158;2022-07-24T05:25:57;21.60;54.80
13569;DHT22;6856;51.460;7.158;2022-07-24T05:28:32;21.70;54.70
13569;DHT22;6856;51.460;7.158;2022-07-24T05:31:09;21.70;54.80
13569;DHT22;6856;51.460;7.158;2022-07-24T05:33:43;21.70;54.90
13569;DHT22;6856;51.460;7.158;2022-07-24T05:36:18;21.80;55.00
13569;DHT22;6856;51.460;7.158;2022-07-24T05:38:52;21.80;54.90
13569;DHT22;6856;51.460;7.158;2022-07-24T05:41:26;21.90;54.70
13569;DHT22;6856;51.460;7.158;2022-07-24T05:44:01;22.00;54.80
13569;DHT22;6856;51.460;7.158;2022-07-24T05:46:36;22.00;54.70
13569;DHT22;6856;51.460;7.158;2022-07-24T05:49:11;22.10;54.60
13569;DHT22;6856;51.460;7.158;2022-07-24T05:51:45;22.20;54.70
13569;DHT22;6856;51.460;7.158;2022-07-24T05:54:19;22.20;54.90
13569;DHT22;6856;51.460;7.158;2022-07-24T05:56:54;22.30;54.80
13569;DHT22;6856;51.460;7.158;2022-07-24T05:59:28;22.40;54.60
13569;DHT22;6856;51.460;7.158;2022-07-24T06:02:04;22.50;54.60
13569;DHT22;6856;51.460;7.158;2022-07-24T06:04:39;22.60;54.40
13569;DHT22;6856;51.460;7.158;2022-07-24T06:07:15;22.60;54.40
13569;DHT22;6856;51.460;7.158;2022-07-24T06:09:53;22.70;54.30
13569;DHT22;6856;51.460;7.158;2022-07-24T06:12:27;22.80;54.20
13569;DHT22;6856;51.460;7.158;2022-07-24T06:15:01;22.80;53.90
13569;DHT22;6856;51.460;7.158;2022-07-24T06:17:37;22.90;54.00
13569;DHT22;6856;51.460;7.158;2022-07-24T06:20:12;23.00;53.90
13569;DHT22;6856;51.460;7.158;2022-07-24T06:22:48;23.10;53.70
13569;DHT22;6856;51.460;7.158;2022-07-24T06:25:23;23.20;53.70
13569;DHT22;6856;51.460;7.158;2022-07-24T06:27:58;23.30;53.70
13569;DHT22;6856;51.460;7.158;2022-07-24T06:30:33;23.30;53.50
13569;DHT22;6856;51.460;7.158;2022-07-24T06:33:11;23.40;53.40
13569;DHT22;6856;51.460;7.158;2022-07-24T06:35:45;23.50;53.70
13569;DHT22;6856;51.460;7.158;2022-07-24T06:38:20;23.60;53.50
13569;DHT22;6856;51.460;7.158;2022-07-24T06:40:54;23.70;53.50
13569;DHT22;6856;51.460;7.158;2022-07-24T06:43:28;23.80;53.30
13569;DHT22;6856;51.460;7.158;2022-07-24T06:46:03;23.80;53.30
13569;DHT22;6856;51.460;7.158;2022-07-24T06:48:39;24.00;53.30
13569;DHT22;6856;51.460;7.158;2022-07-24T06:51:13;24.00;53.10
13569;DHT22;6856;51.460;7.158;2022-07-24T06:53:49;24.10;53.00
13569;DHT22;6856;51.460;7.158;2022-07-24T06:56:24;24.20;52.70
13569;DHT22;6856;51.460;7.158;2022-07-24T06:58:58;24.30;52.90
13569;DHT22;6856;51.460;7.158;2022-07-24T07:01:33;24.40;52.50
13569;DHT22;6856;51.460;7.158;2022-07-24T07:04:09;24.50;52.30
13569;DHT22;6856;51.460;7.158;2022-07-24T07:06:43;24.60;52.50
13569;DHT22;6856;51.460;7.158;2022-07-24T07:09:18;24.70;52.60
13569;DHT22;6856;51.460;7.158;2022-07-24T07:11:52;24.80;52.30
13569;DHT22;6856;51.460;7.158;2022-07-24T07:14:26;24.90;52.00
13569;DHT22;6856;51.460;7.158;2022-07-24T07:17:01;25.00;52.20
13569;DHT22;6856;51.460;7.158;2022-07-24T07:19:37;25.10;51.80
13569;DHT22;6856;51.460;7.158;2022-07-24T07:22:11;25.20;51.60
13569;DHT22;6856;51.460;7.158;2022-07-24T07:24:46;25.30;51.60
13569;DHT22;6856;51.460;7.158;2022-07-24T07:27:20;25.40;51.50
13569;DHT22;6856;51.460;7.158;2022-07-24T07:29:55;25.50;51.30
13569;DHT22;6856;51.460;7.158;2022-07-24T07:32:30;25.50;51.30
13569;DHT22;6856;51.460;7.158;2022-07-24T07:35:07;25.70;51.30
13569;DHT22;6856;51.460;7.158;2022-07-24T07:37:52;25.70;50.70
13569;DHT22;6856;51.460;7.158;2022-07-24T07:40:27;25.80;51.00
13569;DHT22;6856;51.460;7.158;2022-07-24T07:43:02;25.90;50.70
13569;DHT22;6856;51.460;7.158;2022-07-24T07:45:36;26.00;50.60
13569;DHT22;6856;51.460;7.158;2022-07-24T07:48:11;26.00;50.50
13569;DHT22;6856;51.460;7.158;2022-07-24T07:50:47;26.10;50.60
13569;DHT22;6856;51.460;7.158;2022-07-24T07:53:22;26.20;50.10
13569;DHT22;6856;51.460;7.158;2022-07-24T07:55:56;26.30;49.90
13569;DHT22;6856;51.460;7.158;2022-07-24T07:58:31;26.30;49.60
13569;DHT22;6856;51.460;7.158;2022-07-24T08:01:05;26.40;49.50
13569;DHT22;6856;51.460;7.158;2022-07-24T08:03:40;26.40;49.40
13569;DHT22;6856;51.460;7.158;2022-07-24T08:06:17;26.50;49.40
13569;DHT22;6856;51.460;7.158;2022-07-24T08:08:55;26.60;49.40
13569;DHT22;6856;51.460;7.158;2022-07-24T08:11:30;26.60;49.10
13569;DHT22;6856;51.460;7.158;2022-07-24T08:14:05;26.70;49.20
13569;DHT22;6856;51.460;7.158;2022-07-24T08:16:39;26.70;49.00
13569;DHT22;6856;51.460;7.158;2022-07-24T08:19:14;26.80;49.00
13569;DHT22;6856;51.460;7.158;2022-07-24T08:21:50;26.90;48.50
13569;DHT22;6856;51.460;7.158;2022-07-24T08:24:24;26.90;48.40
13569;DHT22;6856;51.460;7.158;2022-07-24T08:26:59;27.00;48.30
13569;DHT22;6856;51.460;7.158;2022-07-24T08:29:33;27.00;48.30
13569;DHT22;6856;51.460;7.158;2022-07-24T08:32:07;27.10;48.10
13569;DHT22;6856;51.460;7.158;2022-07-24T08:34:44;27.20;48.20
13569;DHT22;6856;51.460;7.158;2022-07-24T08:37:20;27.30;48.10
13569;DHT22;6856;51.460;7.158;2022-07-24T08:39:54;27.30;48.00
13569;DHT22;6856;51.460;7.158;2022-07-24T08:42:29;27.40;48.00
13569;DHT22;6856;51.460;7.158;2022-07-24T08:45:04;27.50;48.00
13569;DHT22;6856;51.460;7.158;2022-07-24T08:47:42;27.60;48.00
13569;DHT22;6856;51.460;7.158;2022-07-24T08:50:16;27.70;48.30
13569;DHT22;6856;51.460;7.158;2022-07-24T08:52:52;27.80;47.90
13569;DHT22;6856;51.460;7.158;2022-07-24T08:55:27;27.90;47.50
13569;DHT22;6856;51.460;7.158;2022-07-24T08:58:03;28.00;47.60
13569;DHT22;6856;51.460;7.158;2022-07-24T09:00:39;28.10;47.30
13569;DHT22;6856;51.460;7.158;2022-07-24T09:03:13;28.20;47.20
13569;DHT22;6856;51.460;7.158;2022-07-24T09:05:55;28.30;47.50
13569;DHT22;6856;51.460;7.158;2022-07-24T09:08:32;28.40;46.80
13569;DHT22;6856;51.460;7.158;2022-07-24T09:11:07;28.50;46.90
13569;DHT22;6856;51.460;7.158;2022-07-24T09:13:42;28.50;46.90
13569;DHT22;6856;51.460;7.158;2022-07-24T09:16:33;28.60;46.80
13569;DHT22;6856;51.460;7.158;2022-07-24T09:19:10;28.70;46.80
13569;DHT22;6856;51.460;7.158;2022-07-24T09:21:47;28.80;46.60
13569;DHT22;6856;51.460;7.158;2022-07-24T09:24:23;28.90;46.30
13569;DHT22;6856;51.460;7.158;2022-07-24T09:26:57;29.00;46.20
13569;DHT22;6856;51.460;7.158;2022-07-24T09:29:32;29.00;46.00
13569;DHT22;6856;51.460;7.158;2022-07-24T09:32:12;29.10;45.80
13569;DHT22;6856;51.460;7.158;2022-07-24T09:35:22;29.40;45.20
13569;DHT22;6856;51.460;7.158;2022-07-24T09:37:59;29.30;46.10
13569;DHT22;6856;51.460;7.158;2022-07-24T09:40:41;29.40;46.20
13569;DHT22;6856;51.460;7.158;2022-07-24T09:43:19;29.50;46.40
13569;DHT22;6856;51.460;7.158;2022-07-24T09:46:01;29.50;45.90
13569;DHT22;6856;51.460;7.158;2022-07-24T09:48:39;29.40;45.60
13569;DHT22;6856;51.460;7.158;2022-07-24T09:51:16;29.80;45.70
13569;DHT22;6856;51.460;7.158;2022-07-24T09:53:54;29.80;45.80
13569;DHT22;6856;51.460;7.158;2022-07-24T09:56:31;29.90;45.60
13569;DHT22;6856;51.460;7.158;2022-07-24T09:59:06;30.00;45.60
13569;DHT22;6856;51.460;7.158;2022-07-24T10:01:43;30.10;45.40
13569;DHT22;6856;51.460;7.158;2022-07-24T10:04:22;30.20;44.90
13569;DHT22;6856;51.460;7.158;2022-07-24T10:06:57;30.30;44.90
13569;DHT22;6856;51.460;7.158;2022-07-24T10:09:33;30.30;44.60
13569;DHT22;6856;51.460;7.158;2022-07-24T10:12:17;30.40;44.50
13569;DHT22;6856;51.460;7.158;2022-07-24T10:14:55;30.50;44.10
13569;DHT22;6856;51.460;7.158;2022-07-24T10:17:52;30.50;44.30
13569;DHT22;6856;51.460;7.158;2022-07-24T10:20:47;30.60;43.80
13569;DHT22;6856;51.460;7.158;2022-07-24T10:23:23;30.60;44.20
13569;DHT22;6856;51.460;7.158;2022-07-24T10:26:06;30.70;43.80
13569;DHT22;6856;51.460;7.158;2022-07-24T10:28:53;30.70;43.70
13569;DHT22;6856;51.460;7.158;2022-07-24T10:31:41;30.80;43.90
13569;DHT22;6856;51.460;7.158;2022-07-24T10:34:33;30.90;44.20
13569;DHT22;6856;51.460;7.158;2022-07-24T10:37:17;31.00;44.10
13569;DHT22;6856;51.460;7.158;2022-07-24T10:40:04;31.10;43.40
13569;DHT22;6856;51.460;7.158;2022-07-24T10:43:09;31.20;43.10
13569;DHT22;6856;51.460;7.158;2022-07-24T10:46:09;31.30;43.20
13569;DHT22;6856;51.460;7.158;2022-07-24T10:48:45;31.30;42.60
13569;DHT22;6856;51.460;7.158;2022-07-24T10:51:22;31.30;42.90
13569;DHT22;6856;51.460;7.158;2022-07-24T10:53:56;31.40;43.00
13569;DHT22;6856;51.460;7.158;2022-07-24T10:56:38;31.40;43.10
13569;DHT22;6856;51.460;7.158;2022-07-24T10:59:13;31.50;42.80
13569;DHT22;6856;51.460;7.158;2022-07-24T11:01:49;31.50;42.70
13569;DHT22;6856;51.460;7.158;2022-07-24T11:04:27;31.60;42.70
13569;DHT22;6856;51.460;7.158;2022-07-24T11:07:09;31.60;42.60
13569;DHT22;6856;51.460;7.158;2022-07-24T11:09:58;31.70;42.30
13569;DHT22;6856;51.460;7.158;2022-07-24T11:12:38;31.80;42.20
13569;DHT22;6856;51.460;7.158;2022-07-24T11:15:17;31.80;41.90
13569;DHT22;6856;51.460;7.158;2022-07-24T11:18:15;31.80;41.60
13569;DHT22;6856;51.460;7.158;2022-07-24T11:20:49;31.90;41.60
13569;DHT22;6856;51.460;7.158;2022-07-24T11:23:32;31.90;42.30
13569;DHT22;6856;51.460;7.158;2022-07-24T11:26:36;32.00;41.60
13569;DHT22;6856;51.460;7.158;2022-07-24T11:29:13;32.10;41.20
13569;DHT22;6856;51.460;7.158;2022-07-24T11:31:48;32.20;41.10
13569;DHT22;6856;51.460;7.158;2022-07-24T11:34:25;32.30;41.30
13569;DHT22;6856;51.460;7.158;2022-07-24T11:37:01;32.30;40.50
13569;DHT22;6856;51.460;7.158;2022-07-24T11:39:45;32.40;40.50
13569;DHT22;6856;51.460;7.158;2022-07-24T11:42:21;32.50;40.50
13569;DHT22;6856;51.460;7.158;2022-07-24T11:44:55;32.50;40.20
13569;DHT22;6856;51.460;7.158;2022-07-24T11:47:29;32.60;40.70
13569;DHT22;6856;51.460;7.158;2022-07-24T11:50:06;32.70;40.40
13569;DHT22;6856;51.460;7.158;2022-07-24T11:52:41;32.70;40.50
13569;DHT22;6856;51.460;7.158;2022-07-24T11:55:17;32.80;40.20
13569;DHT22;6856;51.460;7.158;2022-07-24T11:57:52;32.80;40.50
13569;DHT22;6856;51.460;7.158;2022-07-24T12:00:47;32.90;40.30
13569;DHT22;6856;51.460;7.158;2022-07-24T12:03:20;33.00;40.00
13569;DHT22;6856;51.460;7.158;2022-07-24T12:06:01;33.10;40.00
13569;DHT22;6856;51.460;7.158;2022-07-24T12:08:36;33.10;39.30
13569;DHT22;6856;51.460;7.158;2022-07-24T12:11:10;33.10;39.10
13569;DHT22;6856;51.460;7.158;2022-07-24T12:13:43;33.20;39.80
13569;DHT22;6856;51.460;7.158;2022-07-24T12:16:23;33.20;40.00
13569;DHT22;6856;51.460;7.158;2022-07-24T12:19:11;33.30;39.40
13569;DHT22;6856;51.460;7.158;2022-07-24T12:21:48;33.30;39.60
13569;DHT22;6856;51.460;7.158;2022-07-24T12:24:23;33.40;39.50
13569;DHT22;6856;51.460;7.158;2022-07-24T12:27:02;33.40;39.20
13569;DHT22;6856;51.460;7.158;2022-07-24T12:29:41;33.50;38.90
13569;DHT22;6856;51.460;7.158;2022-07-24T12:32:16;33.50;39.00
13569;DHT22;6856;51.460;7.158;2022-07-24T12:34:52;33.50;38.90
13569;DHT22;6856;51.460;7.158;2022-07-24T12:37:47;33.50;39.30
13569;DHT22;6856;51.460;7.158;2022-07-24T12:40:26;33.60;38.70
13569;DHT22;6856;51.460;7.158;2022-07-24T12:43:09;33.60;38.80
13569;DHT22;6856;51.460;7.158;2022-07-24T12:45:44;33.60;38.20
13569;DHT22;6856;51.460;7.158;2022-07-24T12:48:20;33.70;39.20
13569;DHT22;6856;51.460;7.158;2022-07-24T12:51:03;33.70;38.70
13569;DHT22;6856;51.460;7.158;2022-07-24T12:53:41;33.80;39.20
13569;DHT22;6856;51.460;7.158;2022-07-24T12:56:16;33.80;37.90
13569;DHT22;6856;51.460;7.158;2022-07-24T12:58:55;33.80;38.10
13569;DHT22;6856;51.460;7.158;2022-07-24T13:01:44;33.80;38.60
13569;DHT22;6856;51.460;7.158;2022-07-24T13:04:21;33.80;38.30
13569;DHT22;6856;51.460;7.158;2022-07-24T13:06:58;33.90;38.50
13569;DHT22;6856;51.460;7.158;2022-07-24T13:09:35;33.90;38.40
13569;DHT22;6856;51.460;7.158;2022-07-24T13:12:09;33.90;38.10
13569;DHT22;6856;51.460;7.158;2022-07-24T13:14:44;33.90;37.50
13569;DHT22;6856;51.460;7.158;2022-07-24T13:17:19;33.90;37.50
13569;DHT22;6856;51.460;7.158;2022-07-24T13:19:53;33.90;37.50
13569;DHT22;6856;51.460;7.158;2022-07-24T13:22:26;33.80;37.70
13569;DHT22;6856;51.460;7.158;2022-07-24T13:25:01;33.80;37.60
13569;DHT22;6856;51.460;7.158;2022-07-24T13:27:35;33.80;37.90
13569;DHT22;6856;51.460;7.158;2022-07-24T13:30:29;33.80;36.90
13569;DHT22;6856;51.460;7.158;2022-07-24T13:33:05;33.80;37.10
13569;DHT22;6856;51.460;7.158;2022-07-24T13:35:39;33.80;36.90
13569;DHT22;6856;51.460;7.158;2022-07-24T13:38:14;33.80;37.10
13569;DHT22;6856;51.460;7.158;2022-07-24T13:40:54;33.80;37.70
13569;DHT22;6856;51.460;7.158;2022-07-24T13:43:30;33.70;37.10
13569;DHT22;6856;51.460;7.158;2022-07-24T13:46:04;33.80;37.10
13569;DHT22;6856;51.460;7.158;2022-07-24T13:48:38;33.80;37.40
13569;DHT22;6856;51.460;7.158;2022-07-24T13:51:11;33.80;37.00
13569;DHT22;6856;51.460;7.158;2022-07-24T13:53:45;33.80;36.90
13569;DHT22;6856;51.460;7.158;2022-07-24T13:56:21;33.80;36.70
13569;DHT22;6856;51.460;7.158;2022-07-24T13:58:56;33.80;37.00
13569;DHT22;6856;51.460;7.158;2022-07-24T14:01:30;33.80;36.20
13569;DHT22;6856;51.460;7.158;2022-07-24T14:04:06;33.80;36.80
13569;DHT22;6856;51.460;7.158;2022-07-24T14:07:00;33.90;36.40
13569;DHT22;6856;51.460;7.158;2022-07-24T14:09:34;33.90;36.50
13569;DHT22;6856;51.460;7.158;2022-07-24T14:12:09;33.90;36.70
13569;DHT22;6856;51.460;7.158;2022-07-24T14:14:44;33.90;36.10
13569;DHT22;6856;51.460;7.158;2022-07-24T14:17:18;34.00;36.30
13569;DHT22;6856;51.460;7.158;2022-07-24T14:19:52;33.90;36.10
13569;DHT22;6856;51.460;7.158;2022-07-24T14:22:25;33.90;36.40
13569;DHT22;6856;51.460;7.158;2022-07-24T14:24:59;33.90;36.10
13569;DHT22;6856;51.460;7.158;2022-07-24T14:27:35;33.90;36.10
13569;DHT22;6856;51.460;7.158;2022-07-24T14:30:09;33.90;36.30
13569;DHT22;6856;51.460;7.158;2022-07-24T14:32:43;33.90;36.30
13569;DHT22;6856;51.460;7.158;2022-07-24T14:35:17;33.90;36.30
13569;DHT22;6856;51.460;7.158;2022-07-24T14:37:50;33.90;35.90
13569;DHT22;6856;51.460;7.158;2022-07-24T14:40:24;33.90;35.60
13569;DHT22;6856;51.460;7.158;2022-07-24T14:42:59;33.90;35.60
13569;DHT22;6856;51.460;7.158;2022-07-24T14:45:33;33.90;35.70
13569;DHT22;6856;51.460;7.158;2022-07-24T14:48:06;33.90;36.00
13569;DHT22;6856;51.460;7.158;2022-07-24T14:50:40;33.90;36.30
13569;DHT22;6856;51.460;7.158;2022-07-24T14:53:13;33.80;36.00
13569;DHT22;6856;51.460;7.158;2022-07-24T14:55:47;33.80;35.90
13569;DHT22;6856;51.460;7.158;2022-07-24T14:58:22;33.80;35.70
13569;DHT22;6856;51.460;7.158;2022-07-24T15:00:55;33.80;36.30
13569;DHT22;6856;51.460;7.158;2022-07-24T15:03:29;33.80;36.20
13569;DHT22;6856;51.460;7.158;2022-07-24T15:06:03;33.80;36.00
13569;DHT22;6856;51.460;7.158;2022-07-24T15:08:36;33.80;36.00
13569;DHT22;6856;51.460;7.158;2022-07-24T15:11:10;33.80;36.30
13569;DHT22;6856;51.460;7.158;2022-07-24T15:13:46;33.80;36.50
13569;DHT22;6856;51.460;7.158;2022-07-24T15:16:20;33.80;36.30
13569;DHT22;6856;51.460;7.158;2022-07-24T15:18:53;33.80;36.20
13569;DHT22;6856;51.460;7.158;2022-07-24T15:21:27;33.80;36.70
13569;DHT22;6856;51.460;7.158;2022-07-24T15:24:00;33.80;36.00
13569;DHT22;6856;51.460;7.158;2022-07-24T15:26:35;33.80;36.00
13569;DHT22;6856;51.460;7.158;2022-07-24T15:29:11;33.80;36.10
13569;DHT22;6856;51.460;7.158;2022-07-24T15:31:45;33.80;36.30
13569;DHT22;6856;51.460;7.158;2022-07-24T15:34:19;33.80;36.50
13569;DHT22;6856;51.460;7.158;2022-07-24T15:36:53;33.80;36.80
13569;DHT22;6856;51.460;7.158;2022-07-24T15:39:26;33.80;36.30
13569;DHT22;6856;51.460;7.158;2022-07-24T15:42:00;33.80;36.50
13569;DHT22;6856;51.460;7.158;2022-07-24T15:44:35;33.80;36.10
13569;DHT22;6856;51.460;7.158;2022-07-24T15:47:08;33.80;36.20
13569;DHT22;6856;51.460;7.158;2022-07-24T15:49:42;33.80;36.10
13569;DHT22;6856;51.460;7.158;2022-07-24T15:52:16;33.80;36.00
13569;DHT22;6856;51.460;7.158;2022-07-24T15:54:49;33.90;36.10
13569;DHT22;6856;51.460;7.158;2022-07-24T15:57:22;33.90;35.80
13569;DHT22;6856;51.460;7.158;2022-07-24T15:59:57;33.90;36.40
13569;DHT22;6856;51.460;7.158;2022-07-24T16:02:31;33.90;36.50
13569;DHT22;6856;51.460;7.158;2022-07-24T16:05:05;33.90;36.10
13569;DHT22;6856;51.460;7.158;2022-07-24T16:07:40;33.90;35.90
13569;DHT22;6856;51.460;7.158;2022-07-24T16:10:13;33.90;36.00
13569;DHT22;6856;51.460;7.158;2022-07-24T16:12:48;33.90;36.20
13569;DHT22;6856;51.460;7.158;2022-07-24T16:15:24;33.90;36.30
13569;DHT22;6856;51.460;7.158;2022-07-24T16:17:57;33.90;36.10
13569;DHT22;6856;51.460;7.158;2022-07-24T16:20:31;33.90;35.90
13569;DHT22;6856;51.460;7.158;2022-07-24T16:23:05;33.90;36.00
13569;DHT22;6856;51.460;7.158;2022-07-24T16:25:38;33.90;36.00
13569;DHT22;6856;51.460;7.158;2022-07-24T16:28:12;33.90;36.00
13569;DHT22;6856;51.460;7.158;2022-07-24T16:30:47;33.90;35.60
13569;DHT22;6856;51.460;7.158;2022-07-24T16:33:20;34.00;35.60
13569;DHT22;6856;51.460;7.158;2022-07-24T16:36:12;34.00;35.60
13569;DHT22;6856;51.460;7.158;2022-07-24T16:38:46;34.00;35.90
13569;DHT22;6856;51.460;7.158;2022-07-24T16:41:19;33.90;35.60
13569;DHT22;6856;51.460;7.158;2022-07-24T16:44:01;33.90;35.90